sensor_id;sensor_type;location;lat;lon;timestamp;temperature;humidity
71237;DHT22;58984;51.960;5.582;2023-04-03T00:01:27;13.80;47.20
71237;DHT22;58984;51.960;5.582;2023-04-03T00:03:53;13.70;47.20
71237;DHT22;58984;51.960;5.582;2023-04-03T00:06:20;13.70;47.20
71237;DHT22;58984;51.960;5.582;2023-04-03T00:08:46;13.60;47.10
71237;DHT22;58984;51.960;5.582;2023-04-03T00:11:12;13.60;47.10
71237;DHT22;58984;51.960;5.582;2023-04-03T00:13:39;13.60;47.10
71237;DHT22;58984;51.960;5.582;2023-04-03T00:16:05;13.60;47.20
71237;DHT22;58984;51.960;5.582;2023-04-03T00:18:31;13.60;47.10
71237;DHT22;58984;51.960;5.582;2023-04-03T00:20:57;13.60;47.20
71237;DHT22;58984;51.960;5.582;2023-04-03T00:23:22;13.60;47.20
71237;DHT22;58984;51.960;5.582;2023-04-03T00:25:49;13.50;47.20
71237;DHT22;58984;51.960;5.582;2023-04-03T00:28:15;13.50;47.20
71237;DHT22;58984;51.960;5.582;2023-04-03T00:30:41;13.50;47.20
71237;DHT22;58984;51.960;5.582;2023-04-03T00:33:07;13.50;47.20
71237;DHT22;58984;51.960;5.582;2023-04-03T00:35:34;13.50;47.20
71237;DHT22;58984;51.960;5.582;2023-04-03T00:38:00;13.50;47.10
71237;DHT22;58984;51.960;5.582;2023-04-03T00:40:26;13.40;47.70
71237;DHT22;58984;51.960;5.582;2023-04-03T00:42:57;13.40;47.10
71237;DHT22;58984;51.960;5.582;2023-04-03T00:45:27;13.30;47.00
71237;DHT22;58984;51.960;5.582;2023-04-03T00:47:53;13.30;47.10
71237;DHT22;58984;51.960;5.582;2023-04-03T00:50:19;13.40;47.20
71237;DHT22;58984;51.960;5.582;2023-04-03T00:52:45;13.30;47.10
71237;DHT22;58984;51.960;5.582;2023-04-03T00:55:13;13.30;47.10
71237;DHT22;58984;51.960;5.582;2023-04-03T00:57:40;13.30;47.10
71237;DHT22;58984;51.960;5.582;2023-04-03T01:00:10;13.30;47.10
71237;DHT22;58984;51.960;5.582;2023-04-03T01:02:36;13.30;47.80
71237;DHT22;58984;51.960;5.582;2023-04-03T01:05:02;13.20;47.10
71237;DHT22;58984;51.960;5.582;2023-04-03T01:07:30;13.20;47.10
71237;DHT22;58984;51.960;5.582;2023-04-03T01:09:58;13.20;47.20
71237;DHT22;58984;51.960;5.582;2023-04-03T01:12:34;13.20;47.20
71237;DHT22;58984;51.960;5.582;2023-04-03T01:15:08;13.10;47.10
71237;DHT22;58984;51.960;5.582;2023-04-03T01:17:44;13.20;47.20
71237;DHT22;58984;51.960;5.582;2023-04-03T01:28:05;13.10;47.20
71237;DHT22;58984;51.960;5.582;2023-04-03T01:30:34;13.00;47.10
71237;DHT22;58984;51.960;5.582;2023-04-03T01:33:01;13.00;47.20
71237;DHT22;58984;51.960;5.582;2023-04-03T01:35:26;13.00;47.20
71237;DHT22;58984;51.960;5.582;2023-04-03T01:37:52;13.00;47.20
71237;DHT22;58984;51.960;5.582;2023-04-03T01:40:17;13.00;47.20
71237;DHT22;58984;51.960;5.582;2023-04-03T01:42:43;12.90;47.10
71237;DHT22;58984;51.960;5.582;2023-04-03T01:45:09;13.00;47.30
71237;DHT22;58984;51.960;5.582;2023-04-03T01:47:35;13.00;47.20
71237;DHT22;58984;51.960;5.582;2023-04-03T01:50:00;12.90;47.10
71237;DHT22;58984;51.960;5.582;2023-04-03T01:52:26;12.90;47.20
71237;DHT22;58984;51.960;5.582;2023-04-03T01:54:52;12.90;47.20
71237;DHT22;58984;51.960;5.582;2023-04-03T01:57:18;12.80;47.20
71237;DHT22;58984;51.960;5.582;2023-04-03T01:59:43;12.90;47.30
71237;DHT22;58984;51.960;5.582;2023-04-03T02:02:09;12.80;47.20
71237;DHT22;58984;51.960;5.582;2023-04-03T02:04:34;12.80;47.30
71237;DHT22;58984;51.960;5.582;2023-04-03T02:07:00;12.80;47.20
71237;DHT22;58984;51.960;5.582;2023-04-03T02:09:26;12.80;47.30
71237;DHT22;58984;51.960;5.582;2023-04-03T02:11:52;12.80;47.30
71237;DHT22;58984;51.960;5.582;2023-04-03T02:14:18;12.70;47.20
71237;DHT22;58984;51.960;5.582;2023-04-03T02:16:43;12.80;47.40
71237;DHT22;58984;51.960;5.582;2023-04-03T02:19:09;12.70;47.30
71237;DHT22;58984;51.960;5.582;2023-04-03T02:21:34;12.60;47.20
71237;DHT22;58984;51.960;5.582;2023-04-03T02:24:00;12.70;47.30
71237;DHT22;58984;51.960;5.582;2023-04-03T02:26:26;12.70;47.30
71237;DHT22;58984;51.960;5.582;2023-04-03T02:28:51;12.60;47.20
71237;DHT22;58984;51.960;5.582;2023-04-03T02:31:17;12.60;47.20
71237;DHT22;58984;51.960;5.582;2023-04-03T02:33:43;12.60;47.30
71237;DHT22;58984;51.960;5.582;2023-04-03T02:36:08;12.60;47.20
71237;DHT22;58984;51.960;5.582;2023-04-03T02:38:35;12.60;47.20
71237;DHT22;58984;51.960;5.582;2023-04-03T02:41:02;12.60;47.30
71237;DHT22;58984;51.960;5.582;2023-04-03T02:43:28;12.50;47.20
71237;DHT22;58984;51.960;5.582;2023-04-03T02:45:54;12.50;47.30
71237;DHT22;58984;51.960;5.582;2023-04-03T02:48:19;12.50;47.40
71237;DHT22;58984;51.960;5.582;2023-04-03T02:50:45;12.50;47.40
71237;DHT22;58984;51.960;5.582;2023-04-03T02:53:10;12.50;47.40
71237;DHT22;58984;51.960;5.582;2023-04-03T02:55:36;12.50;47.50
71237;DHT22;58984;51.960;5.582;2023-04-03T02:58:02;12.50;47.50
71237;DHT22;58984;51.960;5.582;2023-04-03T03:00:29;12.40;47.40
71237;DHT22;58984;51.960;5.582;2023-04-03T03:02:55;12.40;47.50
71237;DHT22;58984;51.960;5.582;2023-04-03T03:05:20;12.40;48.10
71237;DHT22;58984;51.960;5.582;2023-04-03T03:07:46;12.40;47.50
71237;DHT22;58984;51.960;5.582;2023-04-03T03:10:12;12.40;47.60
71237;DHT22;58984;51.960;5.582;2023-04-03T03:12:37;12.40;47.60
71237;DHT22;58984;51.960;5.582;2023-04-03T03:15:03;12.40;47.60
71237;DHT22;58984;51.960;5.582;2023-04-03T03:17:29;12.30;47.50
71237;DHT22;58984;51.960;5.582;2023-04-03T03:19:54;12.30;47.50
71237;DHT22;58984;51.960;5.582;2023-04-03T03:22:20;12.30;47.60
71237;DHT22;58984;51.960;5.582;2023-04-03T03:24:45;12.30;47.60
71237;DHT22;58984;51.960;5.582;2023-04-03T03:27:11;12.30;47.60
71237;DHT22;58984;51.960;5.582;2023-04-03T03:29:37;12.30;47.70
71237;DHT22;58984;51.960;5.582;2023-04-03T03:32:03;12.30;47.70
71237;DHT22;58984;51.960;5.582;2023-04-03T03:34:29;12.20;47.60
71237;DHT22;58984;51.960;5.582;2023-04-03T03:36:54;12.20;47.60
71237;DHT22;58984;51.960;5.582;2023-04-03T03:39:20;12.20;47.70
71237;DHT22;58984;51.960;5.582;2023-04-03T03:41:46;12.20;47.60
71237;DHT22;58984;51.960;5.582;2023-04-03T03:44:12;12.20;47.60
71237;DHT22;58984;51.960;5.582;2023-04-03T03:46:38;12.20;47.60
71237;DHT22;58984;51.960;5.582;2023-04-03T03:49:03;12.10;47.60
71237;DHT22;58984;51.960;5.582;2023-04-03T03:51:29;12.20;47.70
71237;DHT22;58984;51.960;5.582;2023-04-03T03:53:55;12.10;47.60
71237;DHT22;58984;51.960;5.582;2023-04-03T03:56:20;12.10;47.60
71237;DHT22;58984;51.960;5.582;2023-04-03T03:58:46;12.10;47.70
71237;DHT22;58984;51.960;5.582;2023-04-03T04:01:12;12.10;47.70
71237;DHT22;58984;51.960;5.582;2023-04-03T04:03:37;12.00;47.60
71237;DHT22;58984;51.960;5.582;2023-04-03T04:06:03;12.00;47.70
71237;DHT22;58984;51.960;5.582;2023-04-03T04:08:29;12.00;47.70
71237;DHT22;58984;51.960;5.582;2023-04-03T04:10:55;11.90;47.60
71237;DHT22;58984;51.960;5.582;2023-04-03T04:13:21;12.00;47.70
71237;DHT22;58984;51.960;5.582;2023-04-03T04:15:46;12.00;47.70
71237;DHT22;58984;51.960;5.582;2023-04-03T04:18:12;12.00;47.70
71237;DHT22;58984;51.960;5.582;2023-04-03T04:20:37;11.90;47.70
71237;DHT22;58984;51.960;5.582;2023-04-03T04:23:03;11.90;47.70
71237;DHT22;58984;51.960;5.582;2023-04-03T04:25:29;11.90;47.80
71237;DHT22;58984;51.960;5.582;2023-04-03T04:27:54;11.90;47.70
71237;DHT22;58984;51.960;5.582;2023-04-03T04:30:20;11.90;47.80
71237;DHT22;58984;51.960;5.582;2023-04-03T04:32:45;11.80;47.80
71237;DHT22;58984;51.960;5.582;2023-04-03T04:35:12;11.80;47.80
71237;DHT22;58984;51.960;5.582;2023-04-03T04:37:37;11.80;47.80
71237;DHT22;58984;51.960;5.582;2023-04-03T04:40:03;11.80;47.80
71237;DHT22;58984;51.960;5.582;2023-04-03T04:42:29;11.80;47.80
71237;DHT22;58984;51.960;5.582;2023-04-03T04:44:55;11.80;47.80
71237;DHT22;58984;51.960;5.582;2023-04-03T04:47:20;11.80;47.80
71237;DHT22;58984;51.960;5.582;2023-04-03T04:49:46;11.70;47.70
71237;DHT22;58984;51.960;5.582;2023-04-03T04:52:13;11.70;47.80
71237;DHT22;58984;51.960;5.582;2023-04-03T04:54:38;11.70;47.80
71237;DHT22;58984;51.960;5.582;2023-04-03T04:57:04;11.70;47.80
71237;DHT22;58984;51.960;5.582;2023-04-03T04:59:29;11.70;47.80
71237;DHT22;58984;51.960;5.582;2023-04-03T05:01:55;11.70;47.80
71237;DHT22;58984;51.960;5.582;2023-04-03T05:04:21;11.60;47.80
71237;DHT22;58984;51.960;5.582;2023-04-03T05:06:46;11.60;47.80
71237;DHT22;58984;51.960;5.582;2023-04-03T05:09:12;11.70;47.90
71237;DHT22;58984;51.960;5.582;2023-04-03T05:11:38;11.60;47.80
71237;DHT22;58984;51.960;5.582;2023-04-03T05:14:03;11.60;47.80
71237;DHT22;58984;51.960;5.582;2023-04-03T05:16:32;11.50;47.80
71237;DHT22;58984;51.960;5.582;2023-04-03T05:18:57;11.50;47.80
71237;DHT22;58984;51.960;5.582;2023-04-03T05:21:23;11.50;47.80
71237;DHT22;58984;51.960;5.582;2023-04-03T05:23:51;11.50;47.90
71237;DHT22;58984;51.960;5.582;2023-04-03T05:26:17;11.50;48.60
71237;DHT22;58984;51.960;5.582;2023-04-03T05:28:43;11.50;47.90
71237;DHT22;58984;51.960;5.582;2023-04-03T05:31:08;11.50;48.00
71237;DHT22;58984;51.960;5.582;2023-04-03T05:33:34;11.50;47.90
71237;DHT22;58984;51.960;5.582;2023-04-03T05:36:06;11.50;48.00
71237;DHT22;58984;51.960;5.582;2023-04-03T05:38:32;11.40;47.90
71237;DHT22;58984;51.960;5.582;2023-04-03T05:40:58;11.40;47.90
71237;DHT22;58984;51.960;5.582;2023-04-03T05:43:24;11.40;48.00
71237;DHT22;58984;51.960;5.582;2023-04-03T05:45:51;11.40;48.00
71237;DHT22;58984;51.960;5.582;2023-04-03T05:48:16;11.40;48.00
71237;DHT22;58984;51.960;5.582;2023-04-03T05:50:42;11.40;48.00
71237;DHT22;58984;51.960;5.582;2023-04-03T05:53:17;11.30;48.00
71237;DHT22;58984;51.960;5.582;2023-04-03T05:55:44;11.30;48.10
71237;DHT22;58984;51.960;5.582;2023-04-03T05:58:10;11.30;48.00
71237;DHT22;58984;51.960;5.582;2023-04-03T06:00:36;11.30;48.00
71237;DHT22;58984;51.960;5.582;2023-04-03T06:03:01;11.30;48.10
71237;DHT22;58984;51.960;5.582;2023-04-03T06:05:27;11.30;48.10
71237;DHT22;58984;51.960;5.582;2023-04-03T06:07:53;11.20;48.10
71237;DHT22;58984;51.960;5.582;2023-04-03T06:10:19;11.20;48.10
71237;DHT22;58984;51.960;5.582;2023-04-03T06:12:45;11.20;48.10
71237;DHT22;58984;51.960;5.582;2023-04-03T06:15:11;11.20;48.20
71237;DHT22;58984;51.960;5.582;2023-04-03T06:17:37;11.30;48.40
71237;DHT22;58984;51.960;5.582;2023-04-03T06:20:03;11.20;48.30
71237;DHT22;58984;51.960;5.582;2023-04-03T06:22:29;11.20;48.40
71237;DHT22;58984;51.960;5.582;2023-04-03T06:24:56;11.20;48.50
71237;DHT22;58984;51.960;5.582;2023-04-03T06:27:22;11.20;48.50
71237;DHT22;58984;51.960;5.582;2023-04-03T06:29:47;11.20;48.50
71237;DHT22;58984;51.960;5.582;2023-04-03T06:32:15;11.20;48.50
71237;DHT22;58984;51.960;5.582;2023-04-03T06:34:40;11.20;48.50
71237;DHT22;58984;51.960;5.582;2023-04-03T06:37:14;11.10;48.40
71237;DHT22;58984;51.960;5.582;2023-04-03T06:39:40;11.10;48.50
71237;DHT22;58984;51.960;5.582;2023-04-03T06:42:07;11.20;48.60
71237;DHT22;58984;51.960;5.582;2023-04-03T06:44:32;11.10;48.60
71237;DHT22;58984;51.960;5.582;2023-04-03T06:47:00;11.10;49.30
71237;DHT22;58984;51.960;5.582;2023-04-03T06:49:25;11.10;48.60
71237;DHT22;58984;51.960;5.582;2023-04-03T06:51:51;11.10;48.70
71237;DHT22;58984;51.960;5.582;2023-04-03T06:54:17;11.10;48.80
71237;DHT22;58984;51.960;5.582;2023-04-03T06:56:43;11.10;48.80
71237;DHT22;58984;51.960;5.582;2023-04-03T06:59:09;11.10;48.80
71237;DHT22;58984;51.960;5.582;2023-04-03T07:01:35;11.10;48.80
71237;DHT22;58984;51.960;5.582;2023-04-03T07:04:01;11.10;48.90
71237;DHT22;58984;51.960;5.582;2023-04-03T07:06:27;11.10;48.90
71237;DHT22;58984;51.960;5.582;2023-04-03T07:08:53;11.10;48.90
71237;DHT22;58984;51.960;5.582;2023-04-03T07:11:19;11.10;49.00
71237;DHT22;58984;51.960;5.582;2023-04-03T07:13:45;11.10;49.00
71237;DHT22;58984;51.960;5.582;2023-04-03T07:16:11;11.10;49.10
71237;DHT22;58984;51.960;5.582;2023-04-03T07:18:37;11.10;49.10
71237;DHT22;58984;51.960;5.582;2023-04-03T07:21:04;11.10;49.00
71237;DHT22;58984;51.960;5.582;2023-04-03T07:23:29;11.10;49.10
71237;DHT22;58984;51.960;5.582;2023-04-03T07:25:55;11.10;49.20
71237;DHT22;58984;51.960;5.582;2023-04-03T07:28:22;11.10;49.20
71237;DHT22;58984;51.960;5.582;2023-04-03T07:31:05;11.10;49.10
71237;DHT22;58984;51.960;5.582;2023-04-03T07:33:34;11.10;49.20
71237;DHT22;58984;51.960;5.582;2023-04-03T07:36:01;11.00;49.10
71237;DHT22;58984;51.960;5.582;2023-04-03T07:38:29;11.10;49.30
71237;DHT22;58984;51.960;5.582;2023-04-03T07:40:54;11.10;49.30
71237;DHT22;58984;51.960;5.582;2023-04-03T07:43:22;11.10;49.40
71237;DHT22;58984;51.960;5.582;2023-04-03T07:45:48;11.10;49.40
71237;DHT22;58984;51.960;5.582;2023-04-03T07:48:22;11.10;49.50
71237;DHT22;58984;51.960;5.582;2023-04-03T07:50:48;11.10;49.40
71237;DHT22;58984;51.960;5.582;2023-04-03T07:53:14;11.20;49.70
71237;DHT22;58984;51.960;5.582;2023-04-03T07:55:40;11.20;49.80
71237;DHT22;58984;51.960;5.582;2023-04-03T07:58:17;11.20;49.80
71237;DHT22;58984;51.960;5.582;2023-04-03T08:00:43;11.20;49.80
71237;DHT22;58984;51.960;5.582;2023-04-03T08:03:10;11.20;49.90
71237;DHT22;58984;51.960;5.582;2023-04-03T08:05:44;11.30;50.10
71237;DHT22;58984;51.960;5.582;2023-04-03T08:08:12;11.20;50.10
71237;DHT22;58984;51.960;5.582;2023-04-03T08:10:37;11.40;50.30
71237;DHT22;58984;51.960;5.582;2023-04-03T08:13:04;11.40;50.30
71237;DHT22;58984;51.960;5.582;2023-04-03T08:15:30;11.40;50.40
71237;DHT22;58984;51.960;5.582;2023-04-03T08:17:57;11.50;50.60
71237;DHT22;58984;51.960;5.582;2023-04-03T08:20:23;11.50;50.90
71237;DHT22;58984;51.960;5.582;2023-04-03T08:22:49;11.50;51.00
71237;DHT22;58984;51.960;5.582;2023-04-03T08:25:14;11.50;51.10
71237;DHT22;58984;51.960;5.582;2023-04-03T08:27:40;11.60;51.00
71237;DHT22;58984;51.960;5.582;2023-04-03T08:30:07;11.70;51.20
71237;DHT22;58984;51.960;5.582;2023-04-03T08:32:33;11.70;51.20
71237;DHT22;58984;51.960;5.582;2023-04-03T08:35:00;11.70;51.20
71237;DHT22;58984;51.960;5.582;2023-04-03T08:37:25;11.80;51.60
71237;DHT22;58984;51.960;5.582;2023-04-03T08:39:51;11.90;51.90
71237;DHT22;58984;51.960;5.582;2023-04-03T08:42:32;11.90;52.00
71237;DHT22;58984;51.960;5.582;2023-04-03T08:45:03;12.00;52.20
71237;DHT22;58984;51.960;5.582;2023-04-03T08:47:38;12.00;52.20
71237;DHT22;58984;51.960;5.582;2023-04-03T08:50:14;12.10;52.50
71237;DHT22;58984;51.960;5.582;2023-04-03T08:52:55;12.20;52.70
71237;DHT22;58984;51.960;5.582;2023-04-03T08:55:49;12.20;52.70
71237;DHT22;58984;51.960;5.582;2023-04-03T08:58:22;12.30;52.70
71237;DHT22;58984;51.960;5.582;2023-04-03T09:01:04;12.40;52.90
71237;DHT22;58984;51.960;5.582;2023-04-03T09:03:36;12.40;52.90
71237;DHT22;58984;51.960;5.582;2023-04-03T09:06:06;12.50;53.00
71237;DHT22;58984;51.960;5.582;2023-04-03T09:08:53;12.50;52.90
71237;DHT22;58984;51.960;5.582;2023-04-03T09:11:36;12.60;53.10
71237;DHT22;58984;51.960;5.582;2023-04-03T09:14:26;12.70;52.90
71237;DHT22;58984;51.960;5.582;2023-04-03T09:17:18;12.70;52.70
71237;DHT22;58984;51.960;5.582;2023-04-03T09:19:56;12.80;52.60
71237;DHT22;58984;51.960;5.582;2023-04-03T09:22:25;12.90;52.30
71237;DHT22;58984;51.960;5.582;2023-04-03T09:25:02;13.00;52.70
71237;DHT22;58984;51.960;5.582;2023-04-03T09:27:31;13.00;52.20
71237;DHT22;58984;51.960;5.582;2023-04-03T09:29:57;13.20;52.40
71237;DHT22;58984;51.960;5.582;2023-04-03T09:32:31;13.20;52.40
71237;DHT22;58984;51.960;5.582;2023-04-03T09:35:01;13.30;52.50
71237;DHT22;58984;51.960;5.582;2023-04-03T09:37:39;13.30;52.50
71237;DHT22;58984;51.960;5.582;2023-04-03T09:40:05;13.40;52.50
71237;DHT22;58984;51.960;5.582;2023-04-03T09:42:32;13.40;52.50
71237;DHT22;58984;51.960;5.582;2023-04-03T09:45:00;13.50;52.70
71237;DHT22;58984;51.960;5.582;2023-04-03T09:52:34;13.60;52.50
71237;DHT22;58984;51.960;5.582;2023-04-03T09:55:21;13.70;53.20
71237;DHT22;58984;51.960;5.582;2023-04-03T09:58:05;13.80;52.00
71237;DHT22;58984;51.960;5.582;2023-04-03T10:00:57;13.80;52.40
71237;DHT22;58984;51.960;5.582;2023-04-03T10:03:44;14.00;52.60
71237;DHT22;58984;51.960;5.582;2023-04-03T10:06:24;13.90;52.50
71237;DHT22;58984;51.960;5.582;2023-04-03T10:09:01;14.00;52.90
71237;DHT22;58984;51.960;5.582;2023-04-03T10:11:28;14.10;52.40
71237;DHT22;58984;51.960;5.582;2023-04-03T10:14:02;14.20;52.20
71237;DHT22;58984;51.960;5.582;2023-04-03T10:21:57;14.30;52.30
71237;DHT22;58984;51.960;5.582;2023-04-03T10:27:35;14.50;52.30
71237;DHT22;58984;51.960;5.582;2023-04-03T10:30:15;14.50;52.30
71237;DHT22;58984;51.960;5.582;2023-04-03T10:39:00;14.80;51.60
71237;DHT22;58984;51.960;5.582;2023-04-03T10:47:02;15.10;51.40
71237;DHT22;58984;51.960;5.582;2023-04-03T10:50:20;15.10;51.70
71237;DHT22;58984;51.960;5.582;2023-04-03T10:52:55;15.20;52.10
71237;DHT22;58984;51.960;5.582;2023-04-03T10:58:24;15.40;51.50
71237;DHT22;58984;51.960;5.582;2023-04-03T11:00:53;15.50;51.50
71237;DHT22;58984;51.960;5.582;2023-04-03T11:03:34;15.60;51.80
71237;DHT22;58984;51.960;5.582;2023-04-03T11:06:05;15.60;51.70
71237;DHT22;58984;51.960;5.582;2023-04-03T11:08:37;15.70;51.90
71237;DHT22;58984;51.960;5.582;2023-04-03T11:11:09;15.80;52.00
71237;DHT22;58984;51.960;5.582;2023-04-03T11:13:38;15.90;52.00
71237;DHT22;58984;51.960;5.582;2023-04-03T11:16:06;16.00;52.20
71237;DHT22;58984;51.960;5.582;2023-04-03T11:18:42;16.20;51.80
71237;DHT22;58984;51.960;5.582;2023-04-03T11:21:31;16.10;51.80
71237;DHT22;58984;51.960;5.582;2023-04-03T11:24:03;16.10;51.80
71237;DHT22;58984;51.960;5.582;2023-04-03T11:26:36;16.30;51.80
71237;DHT22;58984;51.960;5.582;2023-04-03T11:29:12;16.30;51.80
71237;DHT22;58984;51.960;5.582;2023-04-03T11:32:00;16.30;52.00
71237;DHT22;58984;51.960;5.582;2023-04-03T11:37:02;16.50;51.70
71237;DHT22;58984;51.960;5.582;2023-04-03T11:39:34;16.60;51.60
71237;DHT22;58984;51.960;5.582;2023-04-03T11:42:37;16.60;51.20
71237;DHT22;58984;51.960;5.582;2023-04-03T11:45:17;16.70;51.50
71237;DHT22;58984;51.960;5.582;2023-04-03T12:16:05;17.40;51.50
71237;DHT22;58984;51.960;5.582;2023-04-03T12:21:08;17.50;52.00
71237;DHT22;58984;51.960;5.582;2023-04-03T12:23:36;17.60;51.80
71237;DHT22;58984;51.960;5.582;2023-04-03T12:26:25;17.60;51.90
71237;DHT22;58984;51.960;5.582;2023-04-03T12:28:51;17.70;51.70
71237;DHT22;58984;51.960;5.582;2023-04-03T12:31:19;17.70;51.70
71237;DHT22;58984;51.960;5.582;2023-04-03T12:36:35;17.70;51.50
71237;DHT22;58984;51.960;5.582;2023-04-03T12:42:10;17.80;50.80
71237;DHT22;58984;51.960;5.582;2023-04-03T12:47:27;17.90;50.90
71237;DHT22;58984;51.960;5.582;2023-04-03T12:49:55;17.90;50.70
71237;DHT22;58984;51.960;5.582;2023-04-03T12:52:45;18.00;50.70
71237;DHT22;58984;51.960;5.582;2023-04-03T12:55:20;18.00;47.90
71237;DHT22;58984;51.960;5.582;2023-04-03T12:57:47;18.30;40.10
71237;DHT22;58984;51.960;5.582;2023-04-03T13:00:32;18.50;36.10
71237;DHT22;58984;51.960;5.582;2023-04-03T13:02:59;18.20;39.90
71237;DHT22;58984;51.960;5.582;2023-04-03T13:05:25;18.30;42.70
71237;DHT22;58984;51.960;5.582;2023-04-03T13:08:03;18.30;44.30
71237;DHT22;58984;51.960;5.582;2023-04-03T13:10:30;18.40;40.90
71237;DHT22;58984;51.960;5.582;2023-04-03T13:12:59;18.70;35.40
71237;DHT22;58984;51.960;5.582;2023-04-03T13:15:45;18.80;32.80
71237;DHT22;58984;51.960;5.582;2023-04-03T13:18:44;18.80;33.70
71237;DHT22;58984;51.960;5.582;2023-04-03T13:21:22;18.80;33.90
71237;DHT22;58984;51.960;5.582;2023-04-03T13:23:52;18.90;32.60
71237;DHT22;58984;51.960;5.582;2023-04-03T13:26:22;18.90;32.10
71237;DHT22;58984;51.960;5.582;2023-04-03T13:28:49;18.90;32.00
71237;DHT22;58984;51.960;5.582;2023-04-03T13:31:36;18.80;31.40
71237;DHT22;58984;51.960;5.582;2023-04-03T13:34:13;18.70;31.50
71237;DHT22;58984;51.960;5.582;2023-04-03T13:37:02;18.70;30.80
71237;DHT22;58984;51.960;5.582;2023-04-03T13:39:32;18.80;30.70
71237;DHT22;58984;51.960;5.582;2023-04-03T13:42:16;18.80;29.80
71237;DHT22;58984;51.960;5.582;2023-04-03T13:44:42;18.50;29.00
71237;DHT22;58984;51.960;5.582;2023-04-03T13:49:39;18.50;29.50
71237;DHT22;58984;51.960;5.582;2023-04-03T13:54:54;18.40;28.90
71237;DHT22;58984;51.960;5.582;2023-04-03T13:57:20;18.30;29.20
71237;DHT22;58984;51.960;5.582;2023-04-03T13:59:46;18.30;29.80
71237;DHT22;58984;51.960;5.582;2023-04-03T14:02:20;18.20;29.60
71237;DHT22;58984;51.960;5.582;2023-04-03T14:04:54;18.00;29.60
71237;DHT22;58984;51.960;5.582;2023-04-03T14:07:23;17.90;28.40
71237;DHT22;58984;51.960;5.582;2023-04-03T14:09:49;17.70;27.20
71237;DHT22;58984;51.960;5.582;2023-04-03T14:12:25;17.60;28.90
71237;DHT22;58984;51.960;5.582;2023-04-03T14:14:52;17.50;28.80
71237;DHT22;58984;51.960;5.582;2023-04-03T14:17:20;17.40;29.60
71237;DHT22;58984;51.960;5.582;2023-04-03T14:19:48;17.50;29.50
71237;DHT22;58984;51.960;5.582;2023-04-03T14:22:24;17.50;29.40
71237;DHT22;58984;51.960;5.582;2023-04-03T14:24:51;17.50;29.70
71237;DHT22;58984;51.960;5.582;2023-04-03T14:29:47;17.50;29.40
71237;DHT22;58984;51.960;5.582;2023-04-03T14:32:14;17.50;29.10
71237;DHT22;58984;51.960;5.582;2023-04-03T14:34:40;17.50;29.40
71237;DHT22;58984;51.960;5.582;2023-04-03T14:37:11;17.40;28.90
71237;DHT22;58984;51.960;5.582;2023-04-03T14:39:38;17.30;28.80
71237;DHT22;58984;51.960;5.582;2023-04-03T14:42:04;17.30;28.90
71237;DHT22;58984;51.960;5.582;2023-04-03T14:44:30;17.10;29.40
71237;DHT22;58984;51.960;5.582;2023-04-03T14:46:56;17.10;29.10
71237;DHT22;58984;51.960;5.582;2023-04-03T14:49:25;16.90;30.20
71237;DHT22;58984;51.960;5.582;2023-04-03T14:51:51;16.90;32.60
71237;DHT22;58984;51.960;5.582;2023-04-03T14:54:20;17.00;34.00
71237;DHT22;58984;51.960;5.582;2023-04-03T14:56:51;17.00;35.00
71237;DHT22;58984;51.960;5.582;2023-04-03T14:59:17;17.10;35.50
71237;DHT22;58984;51.960;5.582;2023-04-03T15:01:45;17.10;34.00
71237;DHT22;58984;51.960;5.582;2023-04-03T15:04:15;17.00;32.80
71237;DHT22;58984;51.960;5.582;2023-04-03T15:06:42;17.00;34.70
71237;DHT22;58984;51.960;5.582;2023-04-03T15:09:25;17.00;35.50
71237;DHT22;58984;51.960;5.582;2023-04-03T15:11:52;17.00;36.10
71237;DHT22;58984;51.960;5.582;2023-04-03T15:14:18;17.10;36.30
71237;DHT22;58984;51.960;5.582;2023-04-03T15:16:44;17.10;36.40
71237;DHT22;58984;51.960;5.582;2023-04-03T15:19:11;17.10;37.00
71237;DHT22;58984;51.960;5.582;2023-04-03T15:21:37;17.00;37.20
71237;DHT22;58984;51.960;5.582;2023-04-03T15:24:03;17.00;37.50
71237;DHT22;58984;51.960;5.582;2023-04-03T15:26:29;17.10;37.40
71237;DHT22;58984;51.960;5.582;2023-04-03T15:28:55;17.00;37.10
71237;DHT22;58984;51.960;5.582;2023-04-03T15:31:21;17.00;37.20
71237;DHT22;58984;51.960;5.582;2023-04-03T15:33:46;17.00;36.30
71237;DHT22;58984;51.960;5.582;2023-04-03T15:36:12;17.00;37.00
71237;DHT22;58984;51.960;5.582;2023-04-03T15:38:37;17.00;37.60
71237;DHT22;58984;51.960;5.582;2023-04-03T15:41:04;17.00;37.80
71237;DHT22;58984;51.960;5.582;2023-04-03T15:43:30;17.00;38.20
71237;DHT22;58984;51.960;5.582;2023-04-03T15:45:56;16.90;38.50
71237;DHT22;58984;51.960;5.582;2023-04-03T15:48:23;17.00;38.70
71237;DHT22;58984;51.960;5.582;2023-04-03T15:50:48;16.90;38.70
71237;DHT22;58984;51.960;5.582;2023-04-03T15:53:14;17.00;39.00
71237;DHT22;58984;51.960;5.582;2023-04-03T15:55:39;16.90;39.10
71237;DHT22;58984;51.960;5.582;2023-04-03T15:58:06;16.90;39.50
71237;DHT22;58984;51.960;5.582;2023-04-03T16:00:32;16.90;39.50
71237;DHT22;58984;51.960;5.582;2023-04-03T16:03:06;16.90;39.80
71237;DHT22;58984;51.960;5.582;2023-04-03T16:05:35;16.80;39.80
71237;DHT22;58984;51.960;5.582;2023-04-03T16:08:02;16.80;40.00
71237;DHT22;58984;51.960;5.582;2023-04-03T16:10:28;16.80;39.90
71237;DHT22;58984;51.960;5.582;2023-04-03T16:12:54;16.80;40.00
71237;DHT22;58984;51.960;5.582;2023-04-03T16:15:20;16.80;39.90
71237;DHT22;58984;51.960;5.582;2023-04-03T16:17:46;16.80;40.10
71237;DHT22;58984;51.960;5.582;2023-04-03T16:20:13;16.80;40.10
71237;DHT22;58984;51.960;5.582;2023-04-03T16:22:39;16.70;40.20
71237;DHT22;58984;51.960;5.582;2023-04-03T16:25:06;16.70;40.00
71237;DHT22;58984;51.960;5.582;2023-04-03T16:27:32;16.70;39.80
71237;DHT22;58984;51.960;5.582;2023-04-03T16:29:58;16.70;40.30
71237;DHT22;58984;51.960;5.582;2023-04-03T16:32:26;16.70;40.00
71237;DHT22;58984;51.960;5.582;2023-04-03T16:34:52;16.70;40.00
71237;DHT22;58984;51.960;5.582;2023-04-03T16:37:18;16.60;40.10
71237;DHT22;58984;51.960;5.582;2023-04-03T16:39:44;16.60;39.80
71237;DHT22;58984;51.960;5.582;2023-04-03T16:42:10;16.60;39.80
71237;DHT22;58984;51.960;5.582;2023-04-03T16:44:36;16.60;39.90
71237;DHT22;58984;51.960;5.582;2023-04-03T16:47:02;16.60;39.70
71237;DHT22;58984;51.960;5.582;2023-04-03T16:49:27;16.50;39.70
71237;DHT22;58984;51.960;5.582;2023-04-03T16:51:58;16.50;39.10
71237;DHT22;58984;51.960;5.582;2023-04-03T16:54:24;16.40;38.80
71237;DHT22;58984;51.960;5.582;2023-04-03T16:56:49;16.40;38.90
71237;DHT22;58984;51.960;5.582;2023-04-03T16:59:15;16.40;36.90
71237;DHT22;58984;51.960;5.582;2023-04-03T17:01:41;16.30;35.10
71237;DHT22;58984;51.960;5.582;2023-04-03T17:04:06;16.30;35.20
71237;DHT22;58984;51.960;5.582;2023-04-03T17:06:32;16.20;35.60